createdAt,value
2023-04-21T00:01:47.771Z,23.40
2023-04-21T00:03:49.606Z,30.40
2023-04-21T00:05:51.724Z,32.40
2023-04-21T00:07:53.237Z,32.47
2023-04-21T00:09:54.627Z,27.83
2023-04-21T00:11:56.221Z,24.38
2023-04-21T00:13:57.745Z,19.67
2023-04-21T00:15:59.206Z,20.95
2023-04-21T00:18:00.747Z,20.38
2023-04-21T00:20:02.210Z,22.48
2023-04-21T00:22:04.585Z,21.75
2023-04-21T00:24:06.272Z,25.58
2023-04-21T00:26:08.608Z,21.70
2023-04-21T00:28:10.035Z,23.90
2023-04-21T00:30:11.745Z,27.02
2023-04-21T00:32:13.272Z,26.77
2023-04-21T00:34:14.708Z,25.40
2023-04-21T00:36:16.142Z,25.38
2023-04-21T00:38:17.585Z,22.52
2023-04-21T00:40:19.083Z,21.17
2023-04-21T00:42:20.760Z,20.60
2023-04-21T00:44:22.172Z,21.13
2023-04-21T00:46:23.636Z,24.15
2023-04-21T00:48:25.111Z,24.02
2023-04-21T00:50:26.658Z,22.48
2023-04-21T00:52:28.162Z,26.02
2023-04-21T00:54:29.592Z,27.65
2023-04-21T00:56:32.161Z,29.30
2023-04-21T00:58:34.009Z,29.10
2023-04-21T01:00:36.521Z,29.88
2023-04-21T01:02:39.216Z,26.02
2023-04-21T01:04:40.833Z,29.10
2023-04-21T01:06:42.841Z,32.22
2023-04-21T01:08:46.395Z,28.35
2023-04-21T01:10:47.961Z,25.58
2023-04-21T01:12:49.436Z,24.65
2023-04-21T01:14:51.064Z,26.60
2023-04-21T01:16:52.830Z,24.38
2023-04-21T01:18:54.412Z,24.02
2023-04-21T01:20:56.052Z,25.73
2023-04-21T01:22:57.507Z,33.83
2023-04-21T01:24:59.124Z,31.88
2023-04-21T01:27:01.638Z,32.47
2023-04-21T01:29:03.414Z,33.97
2023-04-21T01:31:05.454Z,31.77
2023-04-21T01:33:06.898Z,30.67
2023-04-21T01:35:08.589Z,32.55
2023-04-21T01:37:10.776Z,37.75
2023-04-21T01:39:12.175Z,70.03
2023-04-21T01:41:13.723Z,52.80
2023-04-21T01:43:15.973Z,37.03
2023-04-21T01:45:17.425Z,32.92
2023-04-21T01:47:19.116Z,39.20
2023-04-21T01:49:20.741Z,39.42
2023-04-21T01:51:22.321Z,42.58
2023-04-21T01:53:23.736Z,71.97
2023-04-21T01:55:25.493Z,41.58
2023-04-21T01:57:26.950Z,41.67
2023-04-21T01:59:28.429Z,36.95
2023-04-21T02:01:29.931Z,33.35
2023-04-21T02:03:31.658Z,32.75
2023-04-21T02:05:33.220Z,35.17
2023-04-21T02:07:34.672Z,44.25
2023-04-21T02:09:36.544Z,40.25
2023-04-21T02:11:38.215Z,37.30
2023-04-21T02:13:39.609Z,30.13
2023-04-21T02:15:41.598Z,33.25
2023-04-21T02:17:44.882Z,39.25
2023-04-21T02:19:47.860Z,35.50
2023-04-21T02:21:49.289Z,32.30
2023-04-21T02:23:51.345Z,34.33
2023-04-21T02:25:52.768Z,30.15
2023-04-21T02:27:54.192Z,27.33
2023-04-21T02:29:55.651Z,31.05
2023-04-21T02:32:05.340Z,26.83
2023-04-21T02:34:15.600Z,25.80
2023-04-21T02:36:17.023Z,24.27
2023-04-21T02:38:18.447Z,25.10
2023-04-21T02:40:19.830Z,23.90
2023-04-21T02:42:21.286Z,22.15
2023-04-21T02:44:22.744Z,25.65
2023-04-21T02:46:24.229Z,23.45
2023-04-21T02:48:26.880Z,25.55
2023-04-21T02:50:28.317Z,24.45
2023-04-21T02:52:29.797Z,27.40
2023-04-21T02:54:31.206Z,26.20
2023-04-21T02:56:34.698Z,24.05
2023-04-21T02:58:36.823Z,27.90
2023-04-21T03:00:38.364Z,68.97
2023-04-21T03:02:40.065Z,46.60
2023-04-21T03:04:41.696Z,40.78
2023-04-21T03:06:43.159Z,45.90
2023-04-21T03:08:44.614Z,32.45
2023-04-21T03:10:46.046Z,29.67
2023-04-21T03:12:47.482Z,30.02
2023-04-21T03:14:48.848Z,33.50
2023-04-21T03:16:50.401Z,25.20
2023-04-21T03:18:51.909Z,30.17
2023-04-21T03:20:58.884Z,24.17
2023-04-21T03:23:00.512Z,21.67
2023-04-21T03:25:02.001Z,22.70
2023-04-21T03:27:05.323Z,22.73
2023-04-21T03:29:07.047Z,23.25
2023-04-21T03:31:08.465Z,23.85
2023-04-21T03:33:09.882Z,26.45
2023-04-21T03:35:11.439Z,40.17
2023-04-21T03:37:12.966Z,31.00
2023-04-21T03:41:20.409Z,49.65
2023-04-21T03:43:21.831Z,47.47
2023-04-21T03:45:24.138Z,64.32
2023-04-21T03:47:25.935Z,68.28
2023-04-21T03:49:27.426Z,57.03
2023-04-21T03:51:28.860Z,51.35
2023-04-21T03:53:30.316Z,42.03
2023-04-21T03:55:31.840Z,37.17
2023-04-21T03:57:33.229Z,44.58
2023-04-21T03:59:34.693Z,41.47
2023-04-21T04:01:36.180Z,34.90
2023-04-21T04:03:37.820Z,34.15
2023-04-21T04:05:39.454Z,28.75
2023-04-21T04:07:40.958Z,24.27
2023-04-21T04:09:42.439Z,23.75
2023-04-21T04:11:43.909Z,21.30
2023-04-21T04:13:45.336Z,21.52
2023-04-21T04:15:46.740Z,21.42
2023-04-21T04:17:48.232Z,21.52
2023-04-21T04:19:49.654Z,21.30
2023-04-21T04:21:51.083Z,83.22
2023-04-21T04:23:52.616Z,40.55
2023-04-21T04:25:54.038Z,17.50
2023-04-21T04:27:55.629Z,18.70
2023-04-21T04:29:57.696Z,18.88
2023-04-21T04:32:01.579Z,19.25
2023-04-21T04:34:03.386Z,16.85
2023-04-21T04:36:04.844Z,26.88
2023-04-21T04:38:07.652Z,25.40
2023-04-21T04:40:10.924Z,17.30
2023-04-21T04:42:12.673Z,15.88
2023-04-21T04:44:15.966Z,15.82
2023-04-21T04:46:17.410Z,15.43
2023-04-21T04:48:19.021Z,14.15
2023-04-21T04:50:20.506Z,12.57
2023-04-21T04:52:21.925Z,11.57
2023-04-21T04:54:24.789Z,12.93
2023-04-21T04:56:26.262Z,11.82
2023-04-21T04:58:27.685Z,12.32
2023-04-21T05:00:29.052Z,12.05
2023-04-21T05:02:30.869Z,13.35
2023-04-21T05:04:33.817Z,12.80
2023-04-21T05:06:35.383Z,12.63
2023-04-21T05:08:36.801Z,12.80
2023-04-21T05:10:38.251Z,13.55
2023-04-21T05:12:39.690Z,12.48
2023-04-21T05:14:41.154Z,13.60
2023-04-21T05:16:45.669Z,13.77
2023-04-21T05:18:47.084Z,14.30
2023-04-21T05:20:48.484Z,14.07
2023-04-21T05:22:49.922Z,14.00
2023-04-21T05:24:51.450Z,13.57
2023-04-21T05:26:52.862Z,12.32
2023-04-21T05:28:58.025Z,12.63
2023-04-21T05:30:59.494Z,12.45
2023-04-21T05:33:01.035Z,13.48
2023-04-21T05:35:02.593Z,12.02
2023-04-21T05:37:04.341Z,13.63
2023-04-21T05:39:06.407Z,11.82
2023-04-21T05:41:08.505Z,11.10
2023-04-21T05:43:09.953Z,11.52
2023-04-21T05:45:11.760Z,12.65
2023-04-21T05:47:13.255Z,13.20
2023-04-21T05:49:14.686Z,14.80
2023-04-21T05:51:16.094Z,16.27
2023-04-21T05:53:17.561Z,18.05
2023-04-21T05:55:18.957Z,18.75
2023-04-21T05:57:20.385Z,18.45
2023-04-21T05:59:21.819Z,19.95
2023-04-21T06:01:23.223Z,18.25
2023-04-21T06:03:24.859Z,17.52
2023-04-21T06:05:26.414Z,18.52
2023-04-21T06:07:27.834Z,15.38
2023-04-21T06:09:29.280Z,14.98
2023-04-21T06:11:30.876Z,15.65
2023-04-21T06:13:32.272Z,17.95
2023-04-21T06:15:33.675Z,17.98
2023-04-21T06:17:35.167Z,16.58
2023-04-21T06:19:37.246Z,16.73
2023-04-21T06:21:38.624Z,17.80
2023-04-21T06:23:40.082Z,17.88
2023-04-21T06:25:41.526Z,18.55
2023-04-21T06:27:42.940Z,21.58
2023-04-21T06:29:44.455Z,21.38
2023-04-21T06:31:45.965Z,20.05
2023-04-21T06:33:47.446Z,20.08
2023-04-21T06:35:49.057Z,16.95
2023-04-21T06:37:50.536Z,14.10
2023-04-21T06:39:51.939Z,15.05
2023-04-21T06:41:53.410Z,12.35
2023-04-21T06:43:54.871Z,12.68
2023-04-21T06:45:56.295Z,11.35
2023-04-21T06:47:57.694Z,11.65
2023-04-21T06:49:59.146Z,11.45
2023-04-21T06:52:00.552Z,11.10
2023-04-21T06:54:02.153Z,11.10
2023-04-21T06:56:03.725Z,11.05
2023-04-21T06:58:05.175Z,10.38
2023-04-21T07:00:07.091Z,11.00
2023-04-21T07:02:08.492Z,10.88
2023-04-21T07:04:09.951Z,11.30
2023-04-21T07:06:11.383Z,11.45
2023-04-21T07:08:12.809Z,11.07
2023-04-21T07:10:19.154Z,11.55
2023-04-21T07:12:20.813Z,10.55
2023-04-21T07:14:22.287Z,10.65
2023-04-21T07:16:24.600Z,10.48
2023-04-21T07:18:26.322Z,12.57
2023-04-21T07:20:27.763Z,15.65
2023-04-21T07:22:29.198Z,13.13
2023-04-21T07:24:30.789Z,12.98
2023-04-21T07:26:32.678Z,13.77
2023-04-21T07:28:34.066Z,15.18
2023-04-21T07:30:35.472Z,12.50
2023-04-21T07:32:38.605Z,15.70
2023-04-21T07:34:40.456Z,15.13
2023-04-21T07:36:41.968Z,17.65
2023-04-21T07:38:43.680Z,13.82
2023-04-21T07:40:45.096Z,13.50
2023-04-21T07:42:46.636Z,18.50
2023-04-21T07:44:49.000Z,14.90
2023-04-21T07:46:50.476Z,14.02
2023-04-21T07:48:51.885Z,11.35
2023-04-21T07:50:53.450Z,13.85
2023-04-21T07:52:54.879Z,13.98
2023-04-21T07:54:56.447Z,12.40
2023-04-21T07:56:57.939Z,11.45
2023-04-21T07:58:59.352Z,11.32
2023-04-21T08:01:00.894Z,16.42
2023-04-21T08:03:02.404Z,14.07
2023-04-21T08:05:04.137Z,12.68
2023-04-21T08:07:10.078Z,11.80
2023-04-21T08:09:11.689Z,11.25
2023-04-21T08:11:13.092Z,8.93
2023-04-21T08:13:14.485Z,10.60
2023-04-21T08:15:16.301Z,9.52
2023-04-21T08:17:17.881Z,10.95
2023-04-21T08:19:19.592Z,9.63
2023-04-21T08:21:21.353Z,9.15
2023-04-21T08:23:22.951Z,9.32
2023-04-21T08:25:24.877Z,9.20
2023-04-21T08:27:26.418Z,8.98
2023-04-21T08:29:28.468Z,9.00
2023-04-21T08:31:29.976Z,8.70
2023-04-21T08:33:31.415Z,8.85
2023-04-21T08:35:33.007Z,9.40
2023-04-21T08:37:36.271Z,8.30
2023-04-21T08:39:37.685Z,8.95
2023-04-21T08:41:42.872Z,9.00
2023-04-21T08:43:44.354Z,8.20
2023-04-21T08:45:46.083Z,7.13
2023-04-21T08:47:48.867Z,7.65
2023-04-21T08:49:51.596Z,10.80
2023-04-21T08:51:53.188Z,8.55
2023-04-21T08:53:55.431Z,7.22
2023-04-21T08:56:09.933Z,10.77
2023-04-21T08:58:13.434Z,8.30
2023-04-21T09:00:14.917Z,6.88
2023-04-21T09:02:17.522Z,5.55
2023-04-21T09:04:19.207Z,6.13
2023-04-21T09:06:21.349Z,5.55
2023-04-21T09:08:23.005Z,6.60
2023-04-21T09:10:24.606Z,8.10
2023-04-21T09:12:26.067Z,6.25
2023-04-21T09:14:33.881Z,7.18
2023-04-21T09:16:35.412Z,5.22
2023-04-21T09:18:37.427Z,4.13
2023-04-21T09:20:38.947Z,4.82
2023-04-21T09:22:40.539Z,4.47
2023-04-21T09:25:00.521Z,4.47
2023-04-21T09:27:03.111Z,4.72
2023-04-21T09:29:06.938Z,4.03
2023-04-21T09:31:20.066Z,4.22
2023-04-21T09:33:30.683Z,4.10
2023-04-21T09:35:37.488Z,4.32
2023-04-21T09:37:39.383Z,3.97
2023-04-21T09:39:53.165Z,3.70
2023-04-21T09:42:05.388Z,4.57
2023-04-21T09:44:06.997Z,4.55
2023-04-21T09:46:09.469Z,9.88
2023-04-21T09:48:12.521Z,4.28
2023-04-21T09:50:14.041Z,3.83
2023-04-21T09:52:19.460Z,3.83
2023-04-21T09:56:29.789Z,3.15
2023-04-21T09:58:34.994Z,3.20
2023-04-21T10:00:39.762Z,4.28
2023-04-21T10:02:43.542Z,2.53
2023-04-21T10:04:45.789Z,3.22
2023-04-21T10:06:48.153Z,3.30
2023-04-21T10:08:50.413Z,3.05
2023-04-21T10:10:52.981Z,3.63
2023-04-21T10:12:54.552Z,3.63
2023-04-21T10:14:57.492Z,3.40
2023-04-21T10:17:03.947Z,3.70
2023-04-21T10:19:24.778Z,3.20
2023-04-21T10:21:26.936Z,3.60
2023-04-21T10:23:32.553Z,3.60
2023-04-21T10:25:33.986Z,3.53
2023-04-21T10:27:43.016Z,3.33
2023-04-21T10:29:56.214Z,3.58
2023-04-21T10:31:58.737Z,4.00
2023-04-21T10:34:06.522Z,4.13
2023-04-21T10:36:11.688Z,3.72
2023-04-21T10:38:33.090Z,4.13
2023-04-21T10:40:44.337Z,2.67
2023-04-21T10:42:46.184Z,2.97
2023-04-21T10:44:56.626Z,39.53
2023-04-21T10:46:58.667Z,17.33
2023-04-21T10:49:10.201Z,2.80
2023-04-21T10:51:11.603Z,13.45
2023-04-21T10:53:13.548Z,9.13
2023-04-21T10:55:17.144Z,17.27
2023-04-21T10:57:19.892Z,7.20
2023-04-21T10:59:21.766Z,6.95
2023-04-21T11:01:23.258Z,18.23
2023-04-21T11:03:24.988Z,5.80
2023-04-21T11:05:40.688Z,24.75
2023-04-21T11:07:42.124Z,6.32
2023-04-21T11:09:44.729Z,3.60
2023-04-21T11:11:46.162Z,3.63
2023-04-21T11:13:47.553Z,13.23
2023-04-21T11:16:02.412Z,3.75
2023-04-21T11:18:04.202Z,19.38
2023-04-21T11:20:06.855Z,15.35
2023-04-21T11:22:08.463Z,9.05
2023-04-21T11:24:09.924Z,4.93
2023-04-21T11:26:11.423Z,5.95
2023-04-21T11:28:20.645Z,4.43
2023-04-21T11:30:30.785Z,7.85
2023-04-21T11:32:32.363Z,4.63
2023-04-21T11:34:34.011Z,4.72
2023-04-21T11:36:35.939Z,5.10
2023-04-21T11:38:41.104Z,4.45
2023-04-21T11:40:48.958Z,3.90
2023-04-21T11:42:50.586Z,3.80
2023-04-21T11:44:54.169Z,3.95
2023-04-21T11:46:55.588Z,3.42
2023-04-21T11:48:59.762Z,3.20
2023-04-21T11:51:01.191Z,3.28
2023-04-21T11:53:02.580Z,3.40
2023-04-21T11:55:11.450Z,3.55
2023-04-21T11:57:12.914Z,78.07
2023-04-21T11:59:16.088Z,3.45
2023-04-21T12:01:17.740Z,4.95
2023-04-21T12:03:19.665Z,3.42
2023-04-21T12:05:22.545Z,3.78
2023-04-21T12:07:24.902Z,2.97
2023-04-21T12:09:26.683Z,2.35
2023-04-21T12:11:28.829Z,5.68
2023-04-21T12:13:31.384Z,3.63
2023-04-21T12:15:32.995Z,3.30
2023-04-21T12:17:44.136Z,3.50
2023-04-21T12:19:45.996Z,2.95
2023-04-21T12:21:52.797Z,3.58
2023-04-21T12:23:54.266Z,2.95
2023-04-21T12:25:55.671Z,3.40
2023-04-21T12:27:59.902Z,3.30
2023-04-21T12:30:01.311Z,3.35
2023-04-21T12:32:03.068Z,3.55
2023-04-21T12:34:04.753Z,3.88
2023-04-21T12:36:06.397Z,3.28
2023-04-21T12:38:07.787Z,3.60
2023-04-21T12:40:09.515Z,3.10
2023-04-21T12:42:11.203Z,3.17
2023-04-21T12:44:12.641Z,3.42
2023-04-21T12:46:14.397Z,2.80
2023-04-21T12:48:16.031Z,2.90
2023-04-21T12:50:17.542Z,2.90
2023-04-21T12:52:18.959Z,2.88
2023-04-21T12:54:20.453Z,3.53
2023-04-21T12:56:21.894Z,3.05
2023-04-21T12:58:23.349Z,3.42
2023-04-21T13:00:24.785Z,3.50
2023-04-21T13:02:26.435Z,3.63
2023-04-21T13:04:28.424Z,3.20
2023-04-21T13:06:30.978Z,3.55
2023-04-21T13:08:32.385Z,2.90
2023-04-21T13:10:33.810Z,3.35
2023-04-21T13:12:35.708Z,3.25
2023-04-21T13:14:37.147Z,3.90
2023-04-21T13:16:38.578Z,2.47
2023-04-21T13:18:40.081Z,2.80
2023-04-21T13:20:41.500Z,3.80
2023-04-21T13:22:42.989Z,2.45
2023-04-21T13:24:44.414Z,2.38
2023-04-21T13:26:45.815Z,5.05
2023-04-21T13:28:47.243Z,4.05
2023-04-21T13:30:49.310Z,2.25
2023-04-21T13:32:50.848Z,3.10
2023-04-21T13:34:53.885Z,3.50
2023-04-21T13:36:55.383Z,4.53
2023-04-21T13:38:56.879Z,2.75
2023-04-21T13:40:58.358Z,2.95
2023-04-21T13:42:59.840Z,3.13
2023-04-21T13:45:04.193Z,3.05
2023-04-21T13:47:07.481Z,3.03
2023-04-21T13:49:10.672Z,4.40
2023-04-21T13:51:12.442Z,2.90
2023-04-21T13:53:16.417Z,2.72
2023-04-21T13:55:18.673Z,2.70
2023-04-21T13:57:20.993Z,3.42
2023-04-21T13:59:22.500Z,2.60
2023-04-21T14:01:24.272Z,2.50
2023-04-21T14:03:25.946Z,4.43
2023-04-21T14:05:27.610Z,9.05
2023-04-21T14:07:29.262Z,4.45
2023-04-21T14:09:31.006Z,2.78
2023-04-21T14:11:32.931Z,5.40
2023-04-21T14:13:41.897Z,8.00
2023-04-21T14:15:49.660Z,2.50
2023-04-21T14:17:51.852Z,2.28
2023-04-21T14:19:55.092Z,3.50
2023-04-21T14:21:56.826Z,2.33
2023-04-21T14:23:58.234Z,2.95
2023-04-21T14:25:59.750Z,2.85
2023-04-21T14:28:01.168Z,2.10
2023-04-21T14:30:03.088Z,2.50
2023-04-21T14:32:04.631Z,2.60
2023-04-21T14:34:06.207Z,2.80
2023-04-21T14:36:07.709Z,3.88
2023-04-21T14:38:09.249Z,3.58
2023-04-21T14:40:10.891Z,3.10
2023-04-21T14:42:12.345Z,2.30
2023-04-21T14:44:13.768Z,3.08
2023-04-21T14:46:15.262Z,2.58
2023-04-21T14:48:16.852Z,3.22
2023-04-21T14:50:18.372Z,3.13
2023-04-21T14:52:19.884Z,2.50
2023-04-21T14:54:21.400Z,6.47
2023-04-21T14:56:22.789Z,3.08
2023-04-21T14:58:24.276Z,2.83
2023-04-21T15:00:26.483Z,2.47
2023-04-21T15:02:28.925Z,3.05
2023-04-21T15:04:31.285Z,1.55
2023-04-21T15:06:32.883Z,2.40
2023-04-21T15:08:34.464Z,2.50
2023-04-21T15:10:36.130Z,2.80
2023-04-21T15:12:38.692Z,2.22
2023-04-21T15:14:40.490Z,2.67
2023-04-21T15:16:42.025Z,2.70
2023-04-21T15:18:43.659Z,3.63
2023-04-21T15:20:45.931Z,2.78
2023-04-21T15:22:47.573Z,2.20
2023-04-21T15:24:49.110Z,2.65
2023-04-21T15:26:50.690Z,2.75
2023-04-21T15:28:52.090Z,3.28
2023-04-21T15:30:53.805Z,3.00
2023-04-21T15:32:55.318Z,2.30
2023-04-21T15:34:56.738Z,3.05
2023-04-21T15:36:58.258Z,3.72
2023-04-21T15:38:59.772Z,4.72
2023-04-21T15:41:01.764Z,6.60
2023-04-21T15:43:03.366Z,3.20
2023-04-21T15:45:04.983Z,2.80
2023-04-21T15:47:06.657Z,2.58
2023-04-21T15:49:08.408Z,3.17
2023-04-21T15:51:10.937Z,3.28
2023-04-21T15:53:12.420Z,2.83
2023-04-21T15:55:13.910Z,5.78
2023-04-21T15:57:15.615Z,3.25
2023-04-21T15:59:17.105Z,2.83
2023-04-21T16:01:19.111Z,3.50
2023-04-21T16:03:21.472Z,3.30
2023-04-21T16:05:26.402Z,3.88
2023-04-21T16:07:30.685Z,15.43
2023-04-21T16:09:32.183Z,17.92
2023-04-21T16:11:34.402Z,6.07
2023-04-21T16:13:35.901Z,7.07
2023-04-21T16:15:37.318Z,8.25
2023-04-21T16:17:39.199Z,6.38
2023-04-21T16:19:42.519Z,3.45
2023-04-21T16:21:44.129Z,3.65
2023-04-21T16:23:45.669Z,10.75
2023-04-21T16:25:47.680Z,13.00
2023-04-21T16:27:49.664Z,3.83
2023-04-21T16:29:51.584Z,3.35
2023-04-21T16:31:53.203Z,3.38
2023-04-21T16:33:59.816Z,3.10
2023-04-21T16:36:01.790Z,4.25
2023-04-21T16:38:03.244Z,4.20
2023-04-21T16:40:06.328Z,4.28
2023-04-21T16:42:08.018Z,3.95
2023-04-21T16:44:09.533Z,4.97
2023-04-21T16:46:11.491Z,4.85
2023-04-21T16:48:13.646Z,3.22
2023-04-21T16:50:15.727Z,3.45
2023-04-21T16:52:17.350Z,3.40
2023-04-21T16:54:18.783Z,3.15
2023-04-21T16:56:21.737Z,13.95
2023-04-21T16:58:24.606Z,11.10
2023-04-21T17:00:27.049Z,10.13
2023-04-21T17:02:28.508Z,5.55
2023-04-21T17:04:30.131Z,4.18
2023-04-21T17:06:31.984Z,4.18
2023-04-21T17:08:33.371Z,4.38
2023-04-21T17:10:35.103Z,5.13
2023-04-21T17:12:36.591Z,4.72
2023-04-21T17:14:38.383Z,4.13
2023-04-21T17:16:40.228Z,4.50
2023-04-21T17:18:41.693Z,4.72
2023-04-21T17:20:43.561Z,4.07
2023-04-21T17:22:45.037Z,5.10
2023-04-21T17:24:53.333Z,9.23
2023-04-21T17:26:56.028Z,5.50
2023-04-21T17:28:57.614Z,27.55
2023-04-21T17:31:13.786Z,23.88
2023-04-21T17:33:17.756Z,13.00
2023-04-21T17:35:19.329Z,34.13
2023-04-21T17:37:21.177Z,18.95
2023-04-21T17:39:22.654Z,31.77
2023-04-21T17:41:24.567Z,36.53
2023-04-21T17:43:26.094Z,29.67
2023-04-21T17:45:27.521Z,26.75
2023-04-21T17:47:28.941Z,27.40
2023-04-21T17:49:30.368Z,18.67
2023-04-21T17:51:32.563Z,14.88
2023-04-21T17:53:34.054Z,15.07
2023-04-21T17:55:35.624Z,18.75
2023-04-21T17:57:37.057Z,22.67
2023-04-21T17:59:39.249Z,20.17
2023-04-21T18:01:40.869Z,17.48
2023-04-21T18:03:43.035Z,18.40
2023-04-21T18:05:44.798Z,14.77
2023-04-21T18:07:46.586Z,16.77
2023-04-21T18:09:51.357Z,18.92
2023-04-21T18:11:52.842Z,19.48
2023-04-21T18:13:54.753Z,19.67
2023-04-21T18:15:56.291Z,15.88
2023-04-21T18:18:00.933Z,20.42
2023-04-21T18:20:02.592Z,16.38
2023-04-21T18:22:04.068Z,14.63
2023-04-21T18:24:05.551Z,13.93
2023-04-21T18:26:08.527Z,13.35
2023-04-21T18:28:11.581Z,13.30
2023-04-21T18:30:14.262Z,14.35
2023-04-21T18:32:15.727Z,17.75
2023-04-21T18:34:17.302Z,16.98
2023-04-21T18:36:18.747Z,12.40
2023-04-21T18:38:20.210Z,12.90
2023-04-21T18:40:21.667Z,13.63
2023-04-21T18:42:23.062Z,13.18
2023-04-21T18:44:24.481Z,14.35
2023-04-21T18:46:25.895Z,16.15
2023-04-21T18:48:27.306Z,17.15
2023-04-21T18:50:28.868Z,21.25
2023-04-21T18:52:30.466Z,22.80
2023-04-21T18:54:31.998Z,23.05
2023-04-21T18:56:33.602Z,23.05
2023-04-21T18:58:35.070Z,16.20
2023-04-21T19:00:39.117Z,21.13
2023-04-21T19:02:41.221Z,21.80
2023-04-21T19:04:43.978Z,20.15
2023-04-21T19:06:45.436Z,20.42
2023-04-21T19:08:46.973Z,22.95
2023-04-21T19:10:48.416Z,31.42
2023-04-21T19:12:49.818Z,20.15
2023-04-21T19:14:51.578Z,18.38
2023-04-21T19:16:54.068Z,16.75
2023-04-21T19:18:55.659Z,17.02
2023-04-21T19:20:57.144Z,20.70
2023-04-21T19:22:58.553Z,25.58
2023-04-21T19:25:01.137Z,26.90
2023-04-21T19:27:02.728Z,27.80
2023-04-21T19:29:04.956Z,27.02
2023-04-21T19:31:06.429Z,28.52
2023-04-21T19:33:07.972Z,25.83
2023-04-21T19:35:09.525Z,28.65
2023-04-21T19:37:10.939Z,29.90
2023-04-21T19:39:12.721Z,26.48
2023-04-21T19:41:14.164Z,28.00
2023-04-21T19:43:15.605Z,29.55
2023-04-21T19:45:17.162Z,28.98
2023-04-21T19:47:18.677Z,32.88
2023-04-21T19:49:20.109Z,31.35
2023-04-21T19:51:21.835Z,35.08
2023-04-21T19:53:23.341Z,31.95
2023-04-21T19:55:24.862Z,27.58
2023-04-21T19:57:26.296Z,28.20
2023-04-21T19:59:27.694Z,25.60
2023-04-21T20:01:29.201Z,26.90
2023-04-21T20:03:31.657Z,27.88
2023-04-21T20:05:33.614Z,27.05
2023-04-21T20:07:35.010Z,34.08
2023-04-21T20:09:36.725Z,32.53
2023-04-21T20:11:38.325Z,101.28
2023-04-21T20:13:39.729Z,204.15
2023-04-21T20:15:41.937Z,66.05
2023-04-21T20:17:47.271Z,52.47
2023-04-21T20:19:49.049Z,37.08
2023-04-21T20:21:50.483Z,36.60
2023-04-21T20:23:51.863Z,34.47
2023-04-21T20:25:53.421Z,36.22
2023-04-21T20:27:55.364Z,33.83
2023-04-21T20:29:56.791Z,33.80
2023-04-21T20:31:58.282Z,36.80
2023-04-21T20:33:59.817Z,37.45
2023-04-21T20:36:07.305Z,37.22
2023-04-21T20:38:08.815Z,37.60
2023-04-21T20:40:11.763Z,38.92
2023-04-21T20:42:14.256Z,36.15
2023-04-21T20:44:16.806Z,32.63
2023-04-21T20:46:18.572Z,29.10
2023-04-21T20:48:20.053Z,27.85
2023-04-21T20:50:21.666Z,25.08
2023-04-21T20:52:23.192Z,25.02
2023-04-21T20:54:24.832Z,24.75
2023-04-21T20:56:26.405Z,25.30
2023-04-21T20:58:27.830Z,25.40
2023-04-21T21:00:31.543Z,25.52
2023-04-21T21:02:33.147Z,31.05
2023-04-21T21:04:34.734Z,25.60
2023-04-21T21:06:36.269Z,25.48
2023-04-21T21:08:37.685Z,25.33
2023-04-21T21:10:39.082Z,38.63
2023-04-21T21:12:40.628Z,29.92
2023-04-21T21:14:42.095Z,24.35
2023-04-21T21:16:43.627Z,23.13
2023-04-21T21:18:45.283Z,23.30
2023-04-21T21:20:46.722Z,22.48
2023-04-21T21:22:48.138Z,22.17
2023-04-21T21:24:50.494Z,24.23
2023-04-21T21:26:52.155Z,27.60
2023-04-21T21:28:53.578Z,24.33
2023-04-21T21:30:54.986Z,21.40
2023-04-21T21:32:56.535Z,19.98
2023-04-21T21:34:57.944Z,22.25
2023-04-21T21:36:59.505Z,23.40
2023-04-21T21:39:00.895Z,24.33
2023-04-21T21:41:02.392Z,21.80
2023-04-21T21:43:03.824Z,21.05
2023-04-21T21:45:05.810Z,22.58
2023-04-21T21:47:07.578Z,25.55
2023-04-21T21:49:08.994Z,26.23
2023-04-21T21:51:10.590Z,27.80
2023-04-21T21:53:12.109Z,30.17
2023-04-21T21:55:13.569Z,31.67
2023-04-21T21:57:14.960Z,30.90
2023-04-21T21:59:16.378Z,30.98
2023-04-21T22:01:18.395Z,44.40
2023-04-21T22:03:20.168Z,50.33
2023-04-21T22:05:21.860Z,47.63
2023-04-21T22:07:25.223Z,38.97
2023-04-21T22:09:26.638Z,28.58
2023-04-21T22:11:28.159Z,27.42
2023-04-21T22:13:29.713Z,32.70
2023-04-21T22:15:31.190Z,35.85
2023-04-21T22:17:34.549Z,31.52
2023-04-21T22:19:36.309Z,30.02
2023-04-21T22:21:38.360Z,31.52
2023-04-21T22:23:39.884Z,34.42
2023-04-21T22:25:41.358Z,31.33
2023-04-21T22:27:42.810Z,28.38
2023-04-21T22:29:44.475Z,27.25
2023-04-21T22:31:45.988Z,26.83
2023-04-21T22:33:47.514Z,26.33
2023-04-21T22:35:48.920Z,26.33
2023-04-21T22:37:50.339Z,26.40
2023-04-21T22:39:51.752Z,25.13
2023-04-21T22:41:53.212Z,25.20
2023-04-21T22:43:54.685Z,24.70
2023-04-21T22:45:56.217Z,24.77
2023-04-21T22:47:57.855Z,26.67
2023-04-21T22:49:59.475Z,29.73
2023-04-21T22:52:00.876Z,31.58
2023-04-21T22:54:02.297Z,25.23
2023-04-21T22:56:04.440Z,26.38
2023-04-21T22:58:05.919Z,24.00
2023-04-21T23:00:09.762Z,21.25
2023-04-21T23:02:11.610Z,20.45
2023-04-21T23:04:13.215Z,19.80
2023-04-21T23:06:14.748Z,17.80
2023-04-21T23:08:16.166Z,17.58
2023-04-21T23:10:17.644Z,20.00
2023-04-21T23:12:19.057Z,23.83
2023-04-21T23:14:20.655Z,22.10
2023-04-21T23:16:22.164Z,21.33
2023-04-21T23:18:23.593Z,20.15
2023-04-21T23:20:25.703Z,23.00
2023-04-21T23:22:27.092Z,25.45
2023-04-21T23:24:28.557Z,25.35
2023-04-21T23:26:30.101Z,25.48
2023-04-21T23:28:31.856Z,25.88
2023-04-21T23:30:33.438Z,24.48
2023-04-21T23:32:35.033Z,24.77
2023-04-21T23:34:36.792Z,24.60
2023-04-21T23:36:38.209Z,25.58
2023-04-21T23:38:39.659Z,25.23
2023-04-21T23:40:41.318Z,24.90
2023-04-21T23:42:47.517Z,24.73
2023-04-21T23:44:49.128Z,26.40
2023-04-21T23:46:50.531Z,25.42
2023-04-21T23:48:51.973Z,29.30
2023-04-21T23:50:53.424Z,33.35
2023-04-21T23:52:54.922Z,32.42
2023-04-21T23:54:56.410Z,26.58
2023-04-21T23:56:58.353Z,24.83
2023-04-21T23:58:59.892Z,25.80
